sensor_id;sensor_type;location;lat;lon;timestamp;P1;durP1;ratioP1;P2;durP2;ratioP2
70814;SDS011;58428;49.478;10.986;2022-10-20T00:01:53;8.55;;;5.47;;
70814;SDS011;58428;49.478;10.986;2022-10-20T00:04:19;13.02;;;6.30;;
70814;SDS011;58428;49.478;10.986;2022-10-20T00:06:45;9.90;;;6.22;;
70814;SDS011;58428;49.478;10.986;2022-10-20T00:09:10;11.15;;;5.65;;
70814;SDS011;58428;49.478;10.986;2022-10-20T00:11:36;12.20;;;5.90;;
70814;SDS011;58428;49.478;10.986;2022-10-20T00:14:03;10.00;;;6.20;;
70814;SDS011;58428;49.478;10.986;2022-10-20T00:16:30;9.15;;;5.68;;
70814;SDS011;58428;49.478;10.986;2022-10-20T00:18:56;8.60;;;5.63;;
70814;SDS011;58428;49.478;10.986;2022-10-20T00:21:23;12.25;;;5.93;;
70814;SDS011;58428;49.478;10.986;2022-10-20T00:23:52;11.75;;;6.55;;
70814;SDS011;58428;49.478;10.986;2022-10-20T00:26:21;12.75;;;6.30;;
70814;SDS011;58428;49.478;10.986;2022-10-20T00:28:49;10.35;;;5.97;;
70814;SDS011;58428;49.478;10.986;2022-10-20T00:31:17;10.02;;;6.38;;
70814;SDS011;58428;49.478;10.986;2022-10-20T00:33:44;12.60;;;6.13;;
70814;SDS011;58428;49.478;10.986;2022-10-20T00:38:38;9.07;;;6.13;;
70814;SDS011;58428;49.478;10.986;2022-10-20T00:41:04;10.38;;;5.90;;
70814;SDS011;58428;49.478;10.986;2022-10-20T00:46:35;10.23;;;5.90;;
70814;SDS011;58428;49.478;10.986;2022-10-20T00:49:37;12.18;;;6.43;;
70814;SDS011;58428;49.478;10.986;2022-10-20T00:51:55;10.52;;;6.10;;
70814;SDS011;58428;49.478;10.986;2022-10-20T00:54:23;13.23;;;5.97;;
70814;SDS011;58428;49.478;10.986;2022-10-20T00:56:51;10.50;;;6.20;;
70814;SDS011;58428;49.478;10.986;2022-10-20T00:59:23;11.30;;;6.40;;
70814;SDS011;58428;49.478;10.986;2022-10-20T01:01:53;10.38;;;6.38;;
70814;SDS011;58428;49.478;10.986;2022-10-20T01:04:20;12.45;;;6.47;;
70814;SDS011;58428;49.478;10.986;2022-10-20T01:06:46;12.10;;;6.32;;
70814;SDS011;58428;49.478;10.986;2022-10-20T01:09:13;10.82;;;6.07;;
70814;SDS011;58428;49.478;10.986;2022-10-20T01:26:56;9.43;;;5.60;;
70814;SDS011;58428;49.478;10.986;2022-10-20T01:29:47;9.63;;;5.68;;
70814;SDS011;58428;49.478;10.986;2022-10-20T01:32:35;10.02;;;5.85;;
70814;SDS011;58428;49.478;10.986;2022-10-20T01:35:05;10.80;;;5.85;;
70814;SDS011;58428;49.478;10.986;2022-10-20T01:40:41;13.35;;;6.35;;
70814;SDS011;58428;49.478;10.986;2022-10-20T01:43:08;11.63;;;6.90;;
70814;SDS011;58428;49.478;10.986;2022-10-20T01:45:38;11.80;;;6.22;;
70814;SDS011;58428;49.478;10.986;2022-10-20T01:48:09;11.88;;;7.40;;
70814;SDS011;58428;49.478;10.986;2022-10-20T01:50:40;13.20;;;6.82;;
70814;SDS011;58428;49.478;10.986;2022-10-20T01:53:08;10.02;;;6.40;;
70814;SDS011;58428;49.478;10.986;2022-10-20T01:55:35;11.80;;;6.55;;
70814;SDS011;58428;49.478;10.986;2022-10-20T02:00:48;12.68;;;6.35;;
70814;SDS011;58428;49.478;10.986;2022-10-20T02:03:35;11.32;;;6.40;;
70814;SDS011;58428;49.478;10.986;2022-10-20T02:06:26;11.30;;;6.63;;
70814;SDS011;58428;49.478;10.986;2022-10-20T02:09:04;12.38;;;6.88;;
70814;SDS011;58428;49.478;10.986;2022-10-20T02:14:26;14.55;;;6.30;;
70814;SDS011;58428;49.478;10.986;2022-10-20T02:16:58;10.38;;;6.60;;
70814;SDS011;58428;49.478;10.986;2022-10-20T02:19:28;11.10;;;7.07;;
70814;SDS011;58428;49.478;10.986;2022-10-20T02:21:58;14.20;;;7.05;;
70814;SDS011;58428;49.478;10.986;2022-10-20T02:24:26;12.27;;;6.60;;
70814;SDS011;58428;49.478;10.986;2022-10-20T02:27:02;11.68;;;6.40;;
70814;SDS011;58428;49.478;10.986;2022-10-20T02:29:37;12.02;;;6.63;;
70814;SDS011;58428;49.478;10.986;2022-10-20T02:32:06;10.88;;;6.85;;
70814;SDS011;58428;49.478;10.986;2022-10-20T02:34:34;13.40;;;6.60;;
70814;SDS011;58428;49.478;10.986;2022-10-20T02:37:00;12.48;;;7.43;;
70814;SDS011;58428;49.478;10.986;2022-10-20T02:39:25;10.98;;;7.43;;
70814;SDS011;58428;49.478;10.986;2022-10-20T02:44:21;10.23;;;6.53;;
70814;SDS011;58428;49.478;10.986;2022-10-20T02:46:48;11.75;;;7.28;;
70814;SDS011;58428;49.478;10.986;2022-10-20T02:49:13;10.73;;;7.00;;
70814;SDS011;58428;49.478;10.986;2022-10-20T02:51:42;10.18;;;7.35;;
70814;SDS011;58428;49.478;10.986;2022-10-20T02:54:14;11.18;;;7.10;;
70814;SDS011;58428;49.478;10.986;2022-10-20T02:56:40;11.55;;;7.93;;
70814;SDS011;58428;49.478;10.986;2022-10-20T02:59:10;13.73;;;7.55;;
70814;SDS011;58428;49.478;10.986;2022-10-20T03:01:38;13.00;;;7.93;;
70814;SDS011;58428;49.478;10.986;2022-10-20T03:06:29;17.57;;;7.37;;
70814;SDS011;58428;49.478;10.986;2022-10-20T03:08:56;13.05;;;7.18;;
70814;SDS011;58428;49.478;10.986;2022-10-20T03:11:29;12.30;;;7.10;;
70814;SDS011;58428;49.478;10.986;2022-10-20T03:13:56;11.90;;;6.95;;
70814;SDS011;58428;49.478;10.986;2022-10-20T03:16:22;11.63;;;8.00;;
70814;SDS011;58428;49.478;10.986;2022-10-20T03:18:47;11.40;;;7.68;;
70814;SDS011;58428;49.478;10.986;2022-10-20T03:21:13;15.13;;;7.22;;
70814;SDS011;58428;49.478;10.986;2022-10-20T03:23:38;11.73;;;7.55;;
70814;SDS011;58428;49.478;10.986;2022-10-20T03:26:05;12.25;;;6.68;;
70814;SDS011;58428;49.478;10.986;2022-10-20T03:28:34;12.82;;;7.13;;
70814;SDS011;58428;49.478;10.986;2022-10-20T03:31:01;14.10;;;7.90;;
70814;SDS011;58428;49.478;10.986;2022-10-20T03:33:28;12.52;;;7.22;;
70814;SDS011;58428;49.478;10.986;2022-10-20T03:35:54;13.35;;;8.35;;
70814;SDS011;58428;49.478;10.986;2022-10-20T03:38:21;13.55;;;7.65;;
70814;SDS011;58428;49.478;10.986;2022-10-20T03:40:47;13.27;;;7.32;;
70814;SDS011;58428;49.478;10.986;2022-10-20T03:43:12;15.00;;;8.45;;
70814;SDS011;58428;49.478;10.986;2022-10-20T03:45:39;13.48;;;8.05;;
70814;SDS011;58428;49.478;10.986;2022-10-20T03:48:05;12.98;;;8.60;;
70814;SDS011;58428;49.478;10.986;2022-10-20T03:50:37;14.95;;;7.70;;
70814;SDS011;58428;49.478;10.986;2022-10-20T03:53:03;11.52;;;8.02;;
70814;SDS011;58428;49.478;10.986;2022-10-20T03:55:29;12.00;;;7.18;;
70814;SDS011;58428;49.478;10.986;2022-10-20T03:57:55;12.13;;;7.63;;
70814;SDS011;58428;49.478;10.986;2022-10-20T04:00:22;12.05;;;8.23;;
70814;SDS011;58428;49.478;10.986;2022-10-20T04:02:49;13.55;;;8.30;;
70814;SDS011;58428;49.478;10.986;2022-10-20T04:05:16;13.32;;;7.68;;
70814;SDS011;58428;49.478;10.986;2022-10-20T04:07:44;14.18;;;7.72;;
70814;SDS011;58428;49.478;10.986;2022-10-20T04:13:21;13.55;;;7.88;;
70814;SDS011;58428;49.478;10.986;2022-10-20T04:15:46;13.70;;;7.25;;
70814;SDS011;58428;49.478;10.986;2022-10-20T04:18:13;13.85;;;8.45;;
70814;SDS011;58428;49.478;10.986;2022-10-20T04:20:40;12.60;;;7.75;;
70814;SDS011;58428;49.478;10.986;2022-10-20T04:23:06;15.65;;;8.55;;
70814;SDS011;58428;49.478;10.986;2022-10-20T04:25:31;13.02;;;7.90;;
70814;SDS011;58428;49.478;10.986;2022-10-20T04:27:57;13.07;;;7.53;;
70814;SDS011;58428;49.478;10.986;2022-10-20T04:30:30;13.65;;;8.52;;
70814;SDS011;58428;49.478;10.986;2022-10-20T04:32:57;14.38;;;7.80;;
70814;SDS011;58428;49.478;10.986;2022-10-20T04:35:23;14.25;;;9.00;;
70814;SDS011;58428;49.478;10.986;2022-10-20T04:37:49;13.00;;;7.80;;
70814;SDS011;58428;49.478;10.986;2022-10-20T04:40:17;14.30;;;8.30;;
70814;SDS011;58428;49.478;10.986;2022-10-20T04:42:43;12.77;;;8.45;;
70814;SDS011;58428;49.478;10.986;2022-10-20T04:45:09;13.00;;;7.85;;
70814;SDS011;58428;49.478;10.986;2022-10-20T04:47:39;17.65;;;9.02;;
70814;SDS011;58428;49.478;10.986;2022-10-20T04:50:04;13.70;;;8.60;;
70814;SDS011;58428;49.478;10.986;2022-10-20T04:52:30;12.80;;;8.23;;
70814;SDS011;58428;49.478;10.986;2022-10-20T04:54:56;14.02;;;8.48;;
70814;SDS011;58428;49.478;10.986;2022-10-20T04:57:21;17.23;;;9.63;;
70814;SDS011;58428;49.478;10.986;2022-10-20T04:59:48;15.07;;;8.20;;
70814;SDS011;58428;49.478;10.986;2022-10-20T05:02:14;14.68;;;8.45;;
70814;SDS011;58428;49.478;10.986;2022-10-20T05:04:39;16.40;;;9.20;;
70814;SDS011;58428;49.478;10.986;2022-10-20T05:07:05;15.05;;;8.18;;
70814;SDS011;58428;49.478;10.986;2022-10-20T05:09:32;15.82;;;9.32;;
70814;SDS011;58428;49.478;10.986;2022-10-20T05:12:01;14.18;;;9.07;;
70814;SDS011;58428;49.478;10.986;2022-10-20T05:14:27;17.33;;;9.40;;
70814;SDS011;58428;49.478;10.986;2022-10-20T05:16:55;13.68;;;8.93;;
70814;SDS011;58428;49.478;10.986;2022-10-20T05:19:22;15.25;;;8.75;;
70814;SDS011;58428;49.478;10.986;2022-10-20T05:21:47;12.80;;;7.82;;
70814;SDS011;58428;49.478;10.986;2022-10-20T05:24:14;13.40;;;8.00;;
70814;SDS011;58428;49.478;10.986;2022-10-20T05:26:42;15.48;;;8.50;;
70814;SDS011;58428;49.478;10.986;2022-10-20T05:29:09;16.23;;;9.40;;
70814;SDS011;58428;49.478;10.986;2022-10-20T05:31:40;16.00;;;9.15;;
70814;SDS011;58428;49.478;10.986;2022-10-20T05:34:08;16.35;;;10.00;;
70814;SDS011;58428;49.478;10.986;2022-10-20T05:36:34;18.58;;;9.65;;
70814;SDS011;58428;49.478;10.986;2022-10-20T05:39:00;17.42;;;9.40;;
70814;SDS011;58428;49.478;10.986;2022-10-20T05:41:28;17.75;;;9.88;;
70814;SDS011;58428;49.478;10.986;2022-10-20T05:43:56;17.55;;;9.25;;
70814;SDS011;58428;49.478;10.986;2022-10-20T05:46:24;16.15;;;9.38;;
70814;SDS011;58428;49.478;10.986;2022-10-20T05:48:55;14.82;;;9.10;;
70814;SDS011;58428;49.478;10.986;2022-10-20T05:51:24;17.85;;;8.98;;
70814;SDS011;58428;49.478;10.986;2022-10-20T05:53:54;17.20;;;8.52;;
70814;SDS011;58428;49.478;10.986;2022-10-20T05:56:22;15.75;;;8.98;;
70814;SDS011;58428;49.478;10.986;2022-10-20T05:58:49;14.32;;;8.85;;
70814;SDS011;58428;49.478;10.986;2022-10-20T06:03:56;14.63;;;9.13;;
70814;SDS011;58428;49.478;10.986;2022-10-20T06:06:23;18.27;;;9.75;;
70814;SDS011;58428;49.478;10.986;2022-10-20T06:08:54;15.63;;;9.55;;
70814;SDS011;58428;49.478;10.986;2022-10-20T06:11:21;18.05;;;9.40;;
70814;SDS011;58428;49.478;10.986;2022-10-20T06:13:47;16.17;;;9.15;;
70814;SDS011;58428;49.478;10.986;2022-10-20T06:16:14;19.02;;;9.73;;
70814;SDS011;58428;49.478;10.986;2022-10-20T06:18:46;17.80;;;9.63;;
70814;SDS011;58428;49.478;10.986;2022-10-20T06:21:14;17.23;;;10.02;;
70814;SDS011;58428;49.478;10.986;2022-10-20T06:23:41;18.17;;;10.48;;
70814;SDS011;58428;49.478;10.986;2022-10-20T06:26:08;16.88;;;10.15;;
70814;SDS011;58428;49.478;10.986;2022-10-20T06:28:37;18.27;;;9.68;;
70814;SDS011;58428;49.478;10.986;2022-10-20T06:31:18;15.82;;;9.23;;
70814;SDS011;58428;49.478;10.986;2022-10-20T06:33:47;16.05;;;10.40;;
70814;SDS011;58428;49.478;10.986;2022-10-20T06:36:15;17.40;;;9.55;;
70814;SDS011;58428;49.478;10.986;2022-10-20T06:38:42;15.88;;;8.82;;
70814;SDS011;58428;49.478;10.986;2022-10-20T06:41:11;17.45;;;9.05;;
70814;SDS011;58428;49.478;10.986;2022-10-20T06:43:40;19.20;;;9.30;;
70814;SDS011;58428;49.478;10.986;2022-10-20T06:46:09;18.00;;;9.88;;
70814;SDS011;58428;49.478;10.986;2022-10-20T06:48:37;17.25;;;9.30;;
70814;SDS011;58428;49.478;10.986;2022-10-20T06:51:07;17.85;;;9.52;;
70814;SDS011;58428;49.478;10.986;2022-10-20T06:53:38;16.10;;;9.63;;
70814;SDS011;58428;49.478;10.986;2022-10-20T06:56:07;21.92;;;10.15;;
70814;SDS011;58428;49.478;10.986;2022-10-20T06:58:45;18.30;;;9.13;;
70814;SDS011;58428;49.478;10.986;2022-10-20T07:01:14;17.85;;;9.65;;
70814;SDS011;58428;49.478;10.986;2022-10-20T07:03:51;16.23;;;8.77;;
70814;SDS011;58428;49.478;10.986;2022-10-20T07:06:24;18.88;;;10.13;;
70814;SDS011;58428;49.478;10.986;2022-10-20T07:08:52;16.73;;;9.25;;
70814;SDS011;58428;49.478;10.986;2022-10-20T07:11:22;17.45;;;9.95;;
70814;SDS011;58428;49.478;10.986;2022-10-20T07:13:52;18.75;;;10.73;;
70814;SDS011;58428;49.478;10.986;2022-10-20T07:16:18;16.23;;;9.85;;
70814;SDS011;58428;49.478;10.986;2022-10-20T07:18:47;16.15;;;8.93;;
70814;SDS011;58428;49.478;10.986;2022-10-20T07:21:15;16.33;;;9.50;;
70814;SDS011;58428;49.478;10.986;2022-10-20T07:23:49;13.82;;;9.30;;
70814;SDS011;58428;49.478;10.986;2022-10-20T07:26:19;17.75;;;8.98;;
70814;SDS011;58428;49.478;10.986;2022-10-20T07:28:47;16.77;;;9.38;;
70814;SDS011;58428;49.478;10.986;2022-10-20T07:31:18;14.73;;;8.45;;
70814;SDS011;58428;49.478;10.986;2022-10-20T07:33:46;17.38;;;9.07;;
70814;SDS011;58428;49.478;10.986;2022-10-20T07:36:17;16.45;;;10.00;;
70814;SDS011;58428;49.478;10.986;2022-10-20T07:38:46;16.52;;;9.00;;
70814;SDS011;58428;49.478;10.986;2022-10-20T07:41:12;17.15;;;9.00;;
70814;SDS011;58428;49.478;10.986;2022-10-20T07:43:40;14.77;;;9.25;;
70814;SDS011;58428;49.478;10.986;2022-10-20T07:46:06;15.95;;;9.23;;
70814;SDS011;58428;49.478;10.986;2022-10-20T07:48:35;14.90;;;9.65;;
70814;SDS011;58428;49.478;10.986;2022-10-20T07:53:39;18.40;;;9.07;;
70814;SDS011;58428;49.478;10.986;2022-10-20T07:56:06;15.50;;;8.82;;
70814;SDS011;58428;49.478;10.986;2022-10-20T07:58:33;16.67;;;8.60;;
70814;SDS011;58428;49.478;10.986;2022-10-20T08:00:59;14.93;;;8.35;;
70814;SDS011;58428;49.478;10.986;2022-10-20T08:03:24;19.33;;;10.40;;
70814;SDS011;58428;49.478;10.986;2022-10-20T08:05:50;17.58;;;9.52;;
70814;SDS011;58428;49.478;10.986;2022-10-20T08:08:16;14.43;;;9.80;;
70814;SDS011;58428;49.478;10.986;2022-10-20T08:10:42;16.50;;;9.63;;
70814;SDS011;58428;49.478;10.986;2022-10-20T08:13:09;19.27;;;9.68;;
70814;SDS011;58428;49.478;10.986;2022-10-20T08:15:34;20.25;;;8.60;;
70814;SDS011;58428;49.478;10.986;2022-10-20T08:18:00;15.45;;;8.90;;
70814;SDS011;58428;49.478;10.986;2022-10-20T08:20:25;15.00;;;9.40;;
70814;SDS011;58428;49.478;10.986;2022-10-20T08:22:54;16.38;;;9.10;;
70814;SDS011;58428;49.478;10.986;2022-10-20T08:25:20;14.27;;;8.52;;
70814;SDS011;58428;49.478;10.986;2022-10-20T08:27:47;15.80;;;8.45;;
70814;SDS011;58428;49.478;10.986;2022-10-20T08:30:18;13.88;;;9.20;;
70814;SDS011;58428;49.478;10.986;2022-10-20T08:32:44;14.43;;;8.00;;
70814;SDS011;58428;49.478;10.986;2022-10-20T08:35:09;17.08;;;8.55;;
70814;SDS011;58428;49.478;10.986;2022-10-20T08:37:37;20.70;;;8.73;;
70814;SDS011;58428;49.478;10.986;2022-10-20T08:40:04;49.13;;;12.27;;
70814;SDS011;58428;49.478;10.986;2022-10-20T08:42:34;57.58;;;12.50;;
70814;SDS011;58428;49.478;10.986;2022-10-20T08:45:04;22.95;;;9.15;;
70814;SDS011;58428;49.478;10.986;2022-10-20T08:47:31;31.23;;;10.23;;
70814;SDS011;58428;49.478;10.986;2022-10-20T08:50:03;18.73;;;8.13;;
70814;SDS011;58428;49.478;10.986;2022-10-20T08:52:32;14.38;;;6.95;;
70814;SDS011;58428;49.478;10.986;2022-10-20T08:54:58;61.25;;;10.43;;
70814;SDS011;58428;49.478;10.986;2022-10-20T08:57:27;12.10;;;6.93;;
70814;SDS011;58428;49.478;10.986;2022-10-20T08:59:59;12.32;;;6.72;;
70814;SDS011;58428;49.478;10.986;2022-10-20T09:02:35;12.93;;;6.53;;
70814;SDS011;58428;49.478;10.986;2022-10-20T09:05:02;11.70;;;6.05;;
70814;SDS011;58428;49.478;10.986;2022-10-20T09:07:33;13.40;;;6.90;;
70814;SDS011;58428;49.478;10.986;2022-10-20T09:10:35;11.98;;;7.03;;
70814;SDS011;58428;49.478;10.986;2022-10-20T09:13:29;11.05;;;5.88;;
70814;SDS011;58428;49.478;10.986;2022-10-20T09:16:02;9.15;;;5.70;;
70814;SDS011;58428;49.478;10.986;2022-10-20T09:18:31;9.65;;;6.18;;
70814;SDS011;58428;49.478;10.986;2022-10-20T09:21:20;13.32;;;6.35;;
70814;SDS011;58428;49.478;10.986;2022-10-20T09:23:51;10.80;;;6.40;;
70814;SDS011;58428;49.478;10.986;2022-10-20T09:27:15;11.50;;;6.45;;
70814;SDS011;58428;49.478;10.986;2022-10-20T09:29:15;10.40;;;6.53;;
70814;SDS011;58428;49.478;10.986;2022-10-20T09:31:44;9.63;;;5.82;;
70814;SDS011;58428;49.478;10.986;2022-10-20T09:37:12;11.68;;;6.47;;
70814;SDS011;58428;49.478;10.986;2022-10-20T09:42:21;8.95;;;5.60;;
70814;SDS011;58428;49.478;10.986;2022-10-20T09:47:58;9.50;;;6.05;;
70814;SDS011;58428;49.478;10.986;2022-10-20T09:50:45;10.10;;;6.07;;
70814;SDS011;58428;49.478;10.986;2022-10-20T09:53:18;9.95;;;5.95;;
70814;SDS011;58428;49.478;10.986;2022-10-20T09:55:49;11.52;;;6.45;;
70814;SDS011;58428;49.478;10.986;2022-10-20T09:58:31;11.70;;;6.55;;
70814;SDS011;58428;49.478;10.986;2022-10-20T10:01:03;10.18;;;5.72;;
70814;SDS011;58428;49.478;10.986;2022-10-20T10:03:40;12.52;;;7.18;;
70814;SDS011;58428;49.478;10.986;2022-10-20T10:08:53;10.60;;;7.07;;
70814;SDS011;58428;49.478;10.986;2022-10-20T10:11:23;10.70;;;6.22;;
70814;SDS011;58428;49.478;10.986;2022-10-20T10:14:00;9.43;;;5.88;;
70814;SDS011;58428;49.478;10.986;2022-10-20T10:16:27;9.30;;;5.90;;
70814;SDS011;58428;49.478;10.986;2022-10-20T10:19:02;9.48;;;6.25;;
70814;SDS011;58428;49.478;10.986;2022-10-20T10:21:50;9.30;;;5.60;;
70814;SDS011;58428;49.478;10.986;2022-10-20T10:27:13;10.63;;;5.68;;
70814;SDS011;58428;49.478;10.986;2022-10-20T10:29:53;10.75;;;6.05;;
70814;SDS011;58428;49.478;10.986;2022-10-20T10:32:34;9.60;;;5.53;;
70814;SDS011;58428;49.478;10.986;2022-10-20T10:37:59;10.07;;;5.25;;
70814;SDS011;58428;49.478;10.986;2022-10-20T10:40:51;10.88;;;5.25;;
70814;SDS011;58428;49.478;10.986;2022-10-20T10:46:28;10.05;;;5.45;;
70814;SDS011;58428;49.478;10.986;2022-10-20T10:51:57;10.25;;;5.35;;
70814;SDS011;58428;49.478;10.986;2022-10-20T10:54:39;12.88;;;5.15;;
70814;SDS011;58428;49.478;10.986;2022-10-20T10:57:45;68.68;;;9.07;;
70814;SDS011;58428;49.478;10.986;2022-10-20T11:00:19;14.25;;;5.40;;
70814;SDS011;58428;49.478;10.986;2022-10-20T11:03:02;10.55;;;5.38;;
70814;SDS011;58428;49.478;10.986;2022-10-20T11:09:02;9.73;;;5.05;;
70814;SDS011;58428;49.478;10.986;2022-10-20T11:25:15;7.68;;;4.53;;
70814;SDS011;58428;49.478;10.986;2022-10-20T11:27:51;9.15;;;4.88;;
70814;SDS011;58428;49.478;10.986;2022-10-20T11:30:21;7.50;;;4.57;;
70814;SDS011;58428;49.478;10.986;2022-10-20T11:40:40;8.98;;;5.32;;
70814;SDS011;58428;49.478;10.986;2022-10-20T11:43:16;6.88;;;5.07;;
70814;SDS011;58428;49.478;10.986;2022-10-20T11:46:07;8.07;;;4.45;;
70814;SDS011;58428;49.478;10.986;2022-10-20T11:48:44;7.88;;;4.90;;
70814;SDS011;58428;49.478;10.986;2022-10-20T12:03:33;9.55;;;5.20;;
70814;SDS011;58428;49.478;10.986;2022-10-20T12:11:20;8.60;;;4.50;;
70814;SDS011;58428;49.478;10.986;2022-10-20T12:19:21;9.13;;;4.82;;
70814;SDS011;58428;49.478;10.986;2022-10-20T12:29:49;8.07;;;4.40;;
70814;SDS011;58428;49.478;10.986;2022-10-20T12:34:50;7.03;;;4.40;;
70814;SDS011;58428;49.478;10.986;2022-10-20T12:37:29;7.90;;;4.20;;
70814;SDS011;58428;49.478;10.986;2022-10-20T12:40:47;7.22;;;4.40;;
70814;SDS011;58428;49.478;10.986;2022-10-20T12:43:21;7.50;;;4.50;;
70814;SDS011;58428;49.478;10.986;2022-10-20T12:45:50;8.43;;;4.43;;
70814;SDS011;58428;49.478;10.986;2022-10-20T12:50:47;11.15;;;4.38;;
70814;SDS011;58428;49.478;10.986;2022-10-20T12:53:25;8.48;;;4.13;;
70814;SDS011;58428;49.478;10.986;2022-10-20T12:55:57;6.78;;;4.00;;
70814;SDS011;58428;49.478;10.986;2022-10-20T12:58:35;6.20;;;3.90;;
70814;SDS011;58428;49.478;10.986;2022-10-20T13:01:25;8.55;;;4.13;;
70814;SDS011;58428;49.478;10.986;2022-10-20T13:03:58;12.20;;;5.00;;
70814;SDS011;58428;49.478;10.986;2022-10-20T13:14:29;7.63;;;4.03;;
70814;SDS011;58428;49.478;10.986;2022-10-20T13:19:44;6.20;;;3.92;;
70814;SDS011;58428;49.478;10.986;2022-10-20T13:22:32;7.47;;;4.40;;
70814;SDS011;58428;49.478;10.986;2022-10-20T13:24:58;7.00;;;3.92;;
70814;SDS011;58428;49.478;10.986;2022-10-20T13:27:26;7.10;;;4.13;;
70814;SDS011;58428;49.478;10.986;2022-10-20T13:29:53;6.85;;;4.07;;
70814;SDS011;58428;49.478;10.986;2022-10-20T13:32:32;6.82;;;4.43;;
70814;SDS011;58428;49.478;10.986;2022-10-20T13:35:23;8.65;;;5.03;;
70814;SDS011;58428;49.478;10.986;2022-10-20T13:37:58;7.47;;;4.47;;
70814;SDS011;58428;49.478;10.986;2022-10-20T13:43:22;6.50;;;4.40;;
70814;SDS011;58428;49.478;10.986;2022-10-20T13:51:18;9.05;;;5.20;;
70814;SDS011;58428;49.478;10.986;2022-10-20T13:53:52;9.20;;;5.25;;
70814;SDS011;58428;49.478;10.986;2022-10-20T14:01:43;7.03;;;4.22;;
70814;SDS011;58428;49.478;10.986;2022-10-20T14:06:51;8.25;;;4.47;;
70814;SDS011;58428;49.478;10.986;2022-10-20T14:09:21;7.13;;;4.30;;
70814;SDS011;58428;49.478;10.986;2022-10-20T14:11:49;8.52;;;4.70;;
70814;SDS011;58428;49.478;10.986;2022-10-20T14:14:40;6.53;;;4.15;;
70814;SDS011;58428;49.478;10.986;2022-10-20T14:17:22;7.20;;;4.05;;
70814;SDS011;58428;49.478;10.986;2022-10-20T14:19:50;6.53;;;3.92;;
70814;SDS011;58428;49.478;10.986;2022-10-20T14:22:53;7.43;;;4.10;;
70814;SDS011;58428;49.478;10.986;2022-10-20T14:25:24;6.63;;;4.43;;
70814;SDS011;58428;49.478;10.986;2022-10-20T14:27:54;8.60;;;4.15;;
70814;SDS011;58428;49.478;10.986;2022-10-20T14:30:20;8.35;;;4.88;;
70814;SDS011;58428;49.478;10.986;2022-10-20T14:35:27;9.80;;;5.20;;
70814;SDS011;58428;49.478;10.986;2022-10-20T14:38:07;7.68;;;4.30;;
70814;SDS011;58428;49.478;10.986;2022-10-20T14:41:00;7.63;;;4.10;;
70814;SDS011;58428;49.478;10.986;2022-10-20T14:43:35;7.93;;;4.65;;
70814;SDS011;58428;49.478;10.986;2022-10-20T14:46:06;8.20;;;4.50;;
70814;SDS011;58428;49.478;10.986;2022-10-20T14:48:50;6.65;;;3.80;;
70814;SDS011;58428;49.478;10.986;2022-10-20T14:56:53;31.95;;;22.58;;
70814;SDS011;58428;49.478;10.986;2022-10-20T14:59:22;7.75;;;5.10;;
70814;SDS011;58428;49.478;10.986;2022-10-20T15:04:33;8.73;;;4.30;;
70814;SDS011;58428;49.478;10.986;2022-10-20T15:12:23;6.85;;;4.10;;
70814;SDS011;58428;49.478;10.986;2022-10-20T15:17:33;13.13;;;8.30;;
70814;SDS011;58428;49.478;10.986;2022-10-20T15:22:54;12.07;;;5.78;;
70814;SDS011;58428;49.478;10.986;2022-10-20T15:25:23;10.48;;;4.60;;
70814;SDS011;58428;49.478;10.986;2022-10-20T15:27:49;7.28;;;4.63;;
70814;SDS011;58428;49.478;10.986;2022-10-20T15:30:20;8.95;;;5.03;;
70814;SDS011;58428;49.478;10.986;2022-10-20T15:32:48;11.73;;;6.55;;
70814;SDS011;58428;49.478;10.986;2022-10-20T15:35:15;9.07;;;5.30;;
70814;SDS011;58428;49.478;10.986;2022-10-20T15:37:47;8.48;;;5.63;;
70814;SDS011;58428;49.478;10.986;2022-10-20T15:40:13;9.05;;;5.68;;
70814;SDS011;58428;49.478;10.986;2022-10-20T15:42:39;9.85;;;5.88;;
70814;SDS011;58428;49.478;10.986;2022-10-20T15:45:17;8.82;;;5.18;;
70814;SDS011;58428;49.478;10.986;2022-10-20T15:47:51;7.75;;;4.22;;
70814;SDS011;58428;49.478;10.986;2022-10-20T15:50:17;6.90;;;4.38;;
70814;SDS011;58428;49.478;10.986;2022-10-20T15:55:27;13.45;;;7.57;;
70814;SDS011;58428;49.478;10.986;2022-10-20T15:57:58;13.55;;;8.63;;
70814;SDS011;58428;49.478;10.986;2022-10-20T16:00:26;16.77;;;9.23;;
70814;SDS011;58428;49.478;10.986;2022-10-20T16:06:21;9.25;;;6.25;;
70814;SDS011;58428;49.478;10.986;2022-10-20T16:08:49;12.88;;;6.03;;
70814;SDS011;58428;49.478;10.986;2022-10-20T16:11:16;9.93;;;5.50;;
70814;SDS011;58428;49.478;10.986;2022-10-20T16:13:51;9.10;;;4.70;;
70814;SDS011;58428;49.478;10.986;2022-10-20T16:16:54;7.78;;;4.45;;
70814;SDS011;58428;49.478;10.986;2022-10-20T16:19:20;8.43;;;4.65;;
70814;SDS011;58428;49.478;10.986;2022-10-20T16:21:46;11.60;;;6.40;;
70814;SDS011;58428;49.478;10.986;2022-10-20T16:26:39;8.07;;;4.80;;
70814;SDS011;58428;49.478;10.986;2022-10-20T16:29:07;7.45;;;4.30;;
70814;SDS011;58428;49.478;10.986;2022-10-20T16:31:46;9.88;;;6.32;;
70814;SDS011;58428;49.478;10.986;2022-10-20T16:34:13;8.70;;;5.35;;
70814;SDS011;58428;49.478;10.986;2022-10-20T16:36:39;8.50;;;5.57;;
70814;SDS011;58428;49.478;10.986;2022-10-20T16:39:04;8.40;;;5.32;;
70814;SDS011;58428;49.478;10.986;2022-10-20T16:41:30;10.05;;;5.60;;
70814;SDS011;58428;49.478;10.986;2022-10-20T16:43:57;8.60;;;4.35;;
70814;SDS011;58428;49.478;10.986;2022-10-20T16:48:49;8.55;;;5.38;;
70814;SDS011;58428;49.478;10.986;2022-10-20T16:51:15;11.07;;;5.63;;
70814;SDS011;58428;49.478;10.986;2022-10-20T16:53:43;7.90;;;4.80;;
70814;SDS011;58428;49.478;10.986;2022-10-20T16:56:08;11.95;;;6.45;;
70814;SDS011;58428;49.478;10.986;2022-10-20T16:58:34;10.52;;;6.18;;
70814;SDS011;58428;49.478;10.986;2022-10-20T17:03:40;12.10;;;7.13;;
70814;SDS011;58428;49.478;10.986;2022-10-20T17:06:11;11.02;;;6.32;;
70814;SDS011;58428;49.478;10.986;2022-10-20T17:08:37;10.10;;;5.45;;
70814;SDS011;58428;49.478;10.986;2022-10-20T17:11:07;8.38;;;4.90;;
70814;SDS011;58428;49.478;10.986;2022-10-20T17:13:42;9.23;;;5.00;;
70814;SDS011;58428;49.478;10.986;2022-10-20T17:16:11;9.20;;;5.45;;
70814;SDS011;58428;49.478;10.986;2022-10-20T17:18:42;8.32;;;5.30;;
70814;SDS011;58428;49.478;10.986;2022-10-20T17:21:11;8.02;;;5.53;;
70814;SDS011;58428;49.478;10.986;2022-10-20T17:23:39;10.32;;;5.45;;
70814;SDS011;58428;49.478;10.986;2022-10-20T17:26:07;9.20;;;5.93;;
70814;SDS011;58428;49.478;10.986;2022-10-20T17:28:35;10.38;;;5.80;;
70814;SDS011;58428;49.478;10.986;2022-10-20T17:31:03;10.43;;;6.40;;
70814;SDS011;58428;49.478;10.986;2022-10-20T17:33:30;23.38;;;13.90;;
70814;SDS011;58428;49.478;10.986;2022-10-20T17:35:58;14.25;;;7.35;;
70814;SDS011;58428;49.478;10.986;2022-10-20T17:38:25;11.93;;;6.75;;
70814;SDS011;58428;49.478;10.986;2022-10-20T17:40:51;10.88;;;6.10;;
70814;SDS011;58428;49.478;10.986;2022-10-20T17:43:19;20.90;;;13.65;;
70814;SDS011;58428;49.478;10.986;2022-10-20T17:45:59;14.40;;;9.10;;
70814;SDS011;58428;49.478;10.986;2022-10-20T17:48:26;9.30;;;5.90;;
70814;SDS011;58428;49.478;10.986;2022-10-20T17:53:32;9.50;;;5.82;;
70814;SDS011;58428;49.478;10.986;2022-10-20T17:56:00;18.60;;;11.40;;